Williana, Louisiana
Current Conditions -  °F | °C
As of 12:53 AM on Monday 22 Dec 2014 (Local Time) from KAEX Reporting Station
Haze Haze  
Wind Chill:   Ceiling: 200
Heat Index:   Visibility: 1.2mi
Dew Point:   Wind: 3mph
Humidity: 100%   Direction: 170°S
Pressure: 29.89"   Gusts: NA
Location:  31.6531°N, 92.5571°W
Report Text: KAEX 220653Z 17003KT 1 1/4SM BR OVC002 09/09 A2989 RMK AO2 SLP125 T00940094
Loading
Personal Weather Stations






























Interactive Weather Map New forecast layout! Learn more

10-Day Weather Forecast

Advertisements
Track Severe Weather on mobile